sensor_id;sensor_type;location;lat;lon;timestamp;P1;durP1;ratioP1;P2;durP2;ratioP2
75358;SDS011;64046;51.978;5.934;2022-10-04T00:01:42;7.97;;;3.55;;
75358;SDS011;64046;51.978;5.934;2022-10-04T00:04:17;8.75;;;3.17;;
75358;SDS011;64046;51.978;5.934;2022-10-04T00:06:51;7.30;;;3.33;;
75358;SDS011;64046;51.978;5.934;2022-10-04T00:09:28;10.13;;;3.35;;
75358;SDS011;64046;51.978;5.934;2022-10-04T00:12:02;6.05;;;3.03;;
75358;SDS011;64046;51.978;5.934;2022-10-04T00:14:34;6.82;;;3.10;;
75358;SDS011;64046;51.978;5.934;2022-10-04T00:17:07;8.30;;;3.25;;
75358;SDS011;64046;51.978;5.934;2022-10-04T00:19:41;9.15;;;3.25;;
75358;SDS011;64046;51.978;5.934;2022-10-04T00:22:13;8.52;;;3.53;;
75358;SDS011;64046;51.978;5.934;2022-10-04T00:33:56;7.88;;;3.30;;
75358;SDS011;64046;51.978;5.934;2022-10-04T00:36:52;8.70;;;3.38;;
75358;SDS011;64046;51.978;5.934;2022-10-04T00:39:23;10.30;;;3.60;;
75358;SDS011;64046;51.978;5.934;2022-10-04T00:42:27;10.05;;;3.80;;
75358;SDS011;64046;51.978;5.934;2022-10-04T00:45:06;9.05;;;4.13;;
75358;SDS011;64046;51.978;5.934;2022-10-04T00:50:37;6.38;;;3.03;;
75358;SDS011;64046;51.978;5.934;2022-10-04T00:53:13;8.82;;;3.47;;
75358;SDS011;64046;51.978;5.934;2022-10-04T00:55:51;9.32;;;3.63;;
75358;SDS011;64046;51.978;5.934;2022-10-04T00:58:25;9.18;;;3.33;;
75358;SDS011;64046;51.978;5.934;2022-10-04T01:00:57;8.15;;;3.30;;
75358;SDS011;64046;51.978;5.934;2022-10-04T01:03:31;7.32;;;3.63;;
75358;SDS011;64046;51.978;5.934;2022-10-04T01:06:05;9.38;;;3.10;;
75358;SDS011;64046;51.978;5.934;2022-10-04T01:08:38;9.82;;;3.88;;
75358;SDS011;64046;51.978;5.934;2022-10-04T01:11:13;7.07;;;3.63;;
75358;SDS011;64046;51.978;5.934;2022-10-04T01:13:49;9.05;;;3.95;;
75358;SDS011;64046;51.978;5.934;2022-10-04T01:16:23;7.60;;;2.83;;
75358;SDS011;64046;51.978;5.934;2022-10-04T01:18:56;9.45;;;3.40;;
75358;SDS011;64046;51.978;5.934;2022-10-04T01:21:56;9.82;;;3.70;;
75358;SDS011;64046;51.978;5.934;2022-10-04T01:24:34;8.90;;;3.13;;
75358;SDS011;64046;51.978;5.934;2022-10-04T01:27:06;10.00;;;3.60;;
75358;SDS011;64046;51.978;5.934;2022-10-04T01:30:11;9.05;;;3.28;;
75358;SDS011;64046;51.978;5.934;2022-10-04T01:32:44;11.45;;;3.70;;
75358;SDS011;64046;51.978;5.934;2022-10-04T01:35:13;7.45;;;3.42;;
75358;SDS011;64046;51.978;5.934;2022-10-04T01:37:45;8.85;;;3.55;;
75358;SDS011;64046;51.978;5.934;2022-10-04T01:40:14;8.65;;;3.55;;
75358;SDS011;64046;51.978;5.934;2022-10-04T01:42:47;7.45;;;3.05;;
75358;SDS011;64046;51.978;5.934;2022-10-04T01:45:20;5.30;;;2.80;;
75358;SDS011;64046;51.978;5.934;2022-10-04T01:47:57;5.05;;;3.10;;
75358;SDS011;64046;51.978;5.934;2022-10-04T01:50:29;12.52;;;3.88;;
75358;SDS011;64046;51.978;5.934;2022-10-04T01:53:05;11.05;;;3.60;;
75358;SDS011;64046;51.978;5.934;2022-10-04T01:55:40;8.68;;;3.13;;
75358;SDS011;64046;51.978;5.934;2022-10-04T01:58:16;9.75;;;3.47;;
75358;SDS011;64046;51.978;5.934;2022-10-04T02:00:49;8.20;;;3.10;;
75358;SDS011;64046;51.978;5.934;2022-10-04T02:03:25;8.00;;;2.97;;
75358;SDS011;64046;51.978;5.934;2022-10-04T02:06:01;8.50;;;3.08;;
75358;SDS011;64046;51.978;5.934;2022-10-04T02:08:34;8.32;;;2.95;;
75358;SDS011;64046;51.978;5.934;2022-10-04T02:11:06;9.50;;;2.83;;
75358;SDS011;64046;51.978;5.934;2022-10-04T02:13:39;5.07;;;2.95;;
75358;SDS011;64046;51.978;5.934;2022-10-04T02:16:10;8.35;;;3.47;;
75358;SDS011;64046;51.978;5.934;2022-10-04T02:18:40;9.60;;;4.38;;
75358;SDS011;64046;51.978;5.934;2022-10-04T02:21:10;17.33;;;4.10;;
75358;SDS011;64046;51.978;5.934;2022-10-04T02:23:41;8.88;;;3.17;;
75358;SDS011;64046;51.978;5.934;2022-10-04T02:26:11;11.63;;;4.72;;
75358;SDS011;64046;51.978;5.934;2022-10-04T02:28:43;13.48;;;4.45;;
75358;SDS011;64046;51.978;5.934;2022-10-04T02:31:12;6.88;;;3.33;;
75358;SDS011;64046;51.978;5.934;2022-10-04T02:33:55;11.75;;;3.70;;
75358;SDS011;64046;51.978;5.934;2022-10-04T02:36:26;10.95;;;3.53;;
75358;SDS011;64046;51.978;5.934;2022-10-04T02:38:59;5.90;;;3.08;;
75358;SDS011;64046;51.978;5.934;2022-10-04T02:41:33;9.43;;;3.45;;
75358;SDS011;64046;51.978;5.934;2022-10-04T02:44:10;9.63;;;3.97;;
75358;SDS011;64046;51.978;5.934;2022-10-04T02:46:45;7.30;;;3.10;;
75358;SDS011;64046;51.978;5.934;2022-10-04T02:49:21;6.03;;;3.30;;
75358;SDS011;64046;51.978;5.934;2022-10-04T02:51:58;8.45;;;3.38;;
75358;SDS011;64046;51.978;5.934;2022-10-04T02:54:34;11.27;;;3.70;;
75358;SDS011;64046;51.978;5.934;2022-10-04T02:57:11;11.30;;;4.10;;
75358;SDS011;64046;51.978;5.934;2022-10-04T02:59:46;6.35;;;3.33;;
75358;SDS011;64046;51.978;5.934;2022-10-04T03:02:20;8.00;;;3.67;;
75358;SDS011;64046;51.978;5.934;2022-10-04T03:04:51;8.02;;;3.45;;
75358;SDS011;64046;51.978;5.934;2022-10-04T03:07:23;10.23;;;3.72;;
75358;SDS011;64046;51.978;5.934;2022-10-04T03:09:54;7.45;;;3.70;;
75358;SDS011;64046;51.978;5.934;2022-10-04T03:12:23;8.00;;;3.80;;
75358;SDS011;64046;51.978;5.934;2022-10-04T03:14:55;11.32;;;3.90;;
75358;SDS011;64046;51.978;5.934;2022-10-04T03:17:24;7.43;;;3.53;;
75358;SDS011;64046;51.978;5.934;2022-10-04T03:19:54;11.52;;;4.07;;
75358;SDS011;64046;51.978;5.934;2022-10-04T03:22:25;6.43;;;3.15;;
75358;SDS011;64046;51.978;5.934;2022-10-04T03:24:54;8.38;;;3.30;;
75358;SDS011;64046;51.978;5.934;2022-10-04T03:27:27;8.05;;;3.70;;
75358;SDS011;64046;51.978;5.934;2022-10-04T03:30:03;10.23;;;3.70;;
75358;SDS011;64046;51.978;5.934;2022-10-04T03:32:33;8.95;;;3.63;;
75358;SDS011;64046;51.978;5.934;2022-10-04T03:35:04;5.85;;;2.95;;
75358;SDS011;64046;51.978;5.934;2022-10-04T03:37:37;6.40;;;3.30;;
75358;SDS011;64046;51.978;5.934;2022-10-04T03:40:07;8.32;;;3.92;;
75358;SDS011;64046;51.978;5.934;2022-10-04T03:42:38;6.78;;;4.00;;
75358;SDS011;64046;51.978;5.934;2022-10-04T03:45:13;9.48;;;4.10;;
75358;SDS011;64046;51.978;5.934;2022-10-04T03:47:45;9.77;;;4.72;;
75358;SDS011;64046;51.978;5.934;2022-10-04T03:50:17;10.40;;;5.20;;
75358;SDS011;64046;51.978;5.934;2022-10-04T03:52:51;11.50;;;5.38;;
75358;SDS011;64046;51.978;5.934;2022-10-04T03:55:23;11.35;;;4.57;;
75358;SDS011;64046;51.978;5.934;2022-10-04T03:57:59;8.18;;;4.43;;
75358;SDS011;64046;51.978;5.934;2022-10-04T04:00:31;8.30;;;4.95;;
75358;SDS011;64046;51.978;5.934;2022-10-04T04:03:06;10.75;;;4.57;;
75358;SDS011;64046;51.978;5.934;2022-10-04T04:05:43;12.55;;;4.82;;
75358;SDS011;64046;51.978;5.934;2022-10-04T04:08:20;8.23;;;5.00;;
75358;SDS011;64046;51.978;5.934;2022-10-04T04:10:57;11.95;;;4.75;;
75358;SDS011;64046;51.978;5.934;2022-10-04T04:13:28;10.93;;;5.00;;
75358;SDS011;64046;51.978;5.934;2022-10-04T04:16:11;12.48;;;5.97;;
75358;SDS011;64046;51.978;5.934;2022-10-04T04:18:42;11.93;;;5.38;;
75358;SDS011;64046;51.978;5.934;2022-10-04T04:21:13;12.25;;;4.80;;
75358;SDS011;64046;51.978;5.934;2022-10-04T04:23:48;8.60;;;4.15;;
75358;SDS011;64046;51.978;5.934;2022-10-04T04:26:22;8.45;;;4.28;;
75358;SDS011;64046;51.978;5.934;2022-10-04T04:28:57;8.45;;;4.38;;
75358;SDS011;64046;51.978;5.934;2022-10-04T04:31:37;10.95;;;4.55;;
75358;SDS011;64046;51.978;5.934;2022-10-04T04:34:15;7.68;;;3.97;;
75358;SDS011;64046;51.978;5.934;2022-10-04T04:36:47;6.22;;;4.03;;
75358;SDS011;64046;51.978;5.934;2022-10-04T04:39:17;11.35;;;5.45;;
75358;SDS011;64046;51.978;5.934;2022-10-04T04:42:00;10.57;;;5.00;;
75358;SDS011;64046;51.978;5.934;2022-10-04T04:44:33;10.45;;;4.95;;
75358;SDS011;64046;51.978;5.934;2022-10-04T04:47:07;13.18;;;5.85;;
75358;SDS011;64046;51.978;5.934;2022-10-04T04:49:42;10.80;;;6.00;;
75358;SDS011;64046;51.978;5.934;2022-10-04T04:52:12;8.55;;;5.60;;
75358;SDS011;64046;51.978;5.934;2022-10-04T04:54:45;10.50;;;5.10;;
75358;SDS011;64046;51.978;5.934;2022-10-04T04:57:15;11.82;;;5.10;;
75358;SDS011;64046;51.978;5.934;2022-10-04T04:59:45;19.05;;;7.63;;
75358;SDS011;64046;51.978;5.934;2022-10-04T05:02:32;12.48;;;5.75;;
75358;SDS011;64046;51.978;5.934;2022-10-04T05:05:16;13.77;;;6.18;;
75358;SDS011;64046;51.978;5.934;2022-10-04T05:07:47;14.88;;;6.25;;
75358;SDS011;64046;51.978;5.934;2022-10-04T05:10:19;13.40;;;6.38;;
75358;SDS011;64046;51.978;5.934;2022-10-04T05:12:49;9.68;;;6.20;;
75358;SDS011;64046;51.978;5.934;2022-10-04T05:15:19;10.27;;;5.65;;
75358;SDS011;64046;51.978;5.934;2022-10-04T05:17:52;9.70;;;5.65;;
75358;SDS011;64046;51.978;5.934;2022-10-04T05:20:21;9.65;;;5.22;;
75358;SDS011;64046;51.978;5.934;2022-10-04T05:22:50;11.57;;;6.32;;
75358;SDS011;64046;51.978;5.934;2022-10-04T05:25:23;9.20;;;5.60;;
75358;SDS011;64046;51.978;5.934;2022-10-04T05:27:55;15.45;;;6.18;;
75358;SDS011;64046;51.978;5.934;2022-10-04T05:30:31;8.95;;;5.60;;
75358;SDS011;64046;51.978;5.934;2022-10-04T05:33:12;10.45;;;5.57;;
75358;SDS011;64046;51.978;5.934;2022-10-04T05:35:46;12.27;;;6.07;;
75358;SDS011;64046;51.978;5.934;2022-10-04T05:38:31;8.95;;;5.70;;
75358;SDS011;64046;51.978;5.934;2022-10-04T05:41:08;9.07;;;5.57;;
75358;SDS011;64046;51.978;5.934;2022-10-04T05:43:44;11.95;;;6.78;;
75358;SDS011;64046;51.978;5.934;2022-10-04T05:46:19;14.98;;;6.20;;
75358;SDS011;64046;51.978;5.934;2022-10-04T05:48:54;10.13;;;5.28;;
75358;SDS011;64046;51.978;5.934;2022-10-04T05:51:26;8.05;;;5.93;;
75358;SDS011;64046;51.978;5.934;2022-10-04T05:53:59;13.60;;;5.50;;
75358;SDS011;64046;51.978;5.934;2022-10-04T05:56:41;11.73;;;6.38;;
75358;SDS011;64046;51.978;5.934;2022-10-04T05:59:33;10.30;;;6.10;;
75358;SDS011;64046;51.978;5.934;2022-10-04T06:02:15;12.02;;;6.53;;
75358;SDS011;64046;51.978;5.934;2022-10-04T06:05:02;12.10;;;6.57;;
75358;SDS011;64046;51.978;5.934;2022-10-04T06:07:41;12.57;;;6.07;;
75358;SDS011;64046;51.978;5.934;2022-10-04T06:13:24;12.77;;;6.70;;
75358;SDS011;64046;51.978;5.934;2022-10-04T06:16:13;11.68;;;6.40;;
75358;SDS011;64046;51.978;5.934;2022-10-04T06:21:58;11.65;;;7.00;;
75358;SDS011;64046;51.978;5.934;2022-10-04T06:24:37;16.50;;;7.85;;
75358;SDS011;64046;51.978;5.934;2022-10-04T06:27:10;17.33;;;8.35;;
75358;SDS011;64046;51.978;5.934;2022-10-04T06:29:42;19.67;;;7.97;;
75358;SDS011;64046;51.978;5.934;2022-10-04T06:35:16;11.65;;;7.70;;
75358;SDS011;64046;51.978;5.934;2022-10-04T06:38:04;14.27;;;7.45;;
75358;SDS011;64046;51.978;5.934;2022-10-04T06:40:52;14.75;;;7.57;;
75358;SDS011;64046;51.978;5.934;2022-10-04T06:43:35;17.75;;;7.85;;
75358;SDS011;64046;51.978;5.934;2022-10-04T06:46:21;17.95;;;8.15;;
75358;SDS011;64046;51.978;5.934;2022-10-04T06:48:59;12.80;;;6.80;;
75358;SDS011;64046;51.978;5.934;2022-10-04T06:51:55;16.05;;;7.22;;
75358;SDS011;64046;51.978;5.934;2022-10-04T06:54:59;13.95;;;7.00;;
75358;SDS011;64046;51.978;5.934;2022-10-04T06:57:47;11.65;;;6.50;;
75358;SDS011;64046;51.978;5.934;2022-10-04T07:00:33;16.33;;;8.02;;
75358;SDS011;64046;51.978;5.934;2022-10-04T07:03:10;16.25;;;7.82;;
75358;SDS011;64046;51.978;5.934;2022-10-04T07:05:44;17.50;;;8.48;;
75358;SDS011;64046;51.978;5.934;2022-10-04T07:08:17;14.77;;;6.72;;
75358;SDS011;64046;51.978;5.934;2022-10-04T07:11:02;16.60;;;7.38;;
75358;SDS011;64046;51.978;5.934;2022-10-04T07:13:43;12.07;;;7.15;;
75358;SDS011;64046;51.978;5.934;2022-10-04T07:16:26;12.85;;;6.43;;
75358;SDS011;64046;51.978;5.934;2022-10-04T07:19:07;12.55;;;7.05;;
75358;SDS011;64046;51.978;5.934;2022-10-04T07:21:52;11.48;;;7.03;;
75358;SDS011;64046;51.978;5.934;2022-10-04T07:24:33;13.52;;;6.95;;
75358;SDS011;64046;51.978;5.934;2022-10-04T07:27:23;18.50;;;6.68;;
75358;SDS011;64046;51.978;5.934;2022-10-04T07:29:58;13.07;;;7.03;;
75358;SDS011;64046;51.978;5.934;2022-10-04T07:32:30;12.80;;;7.05;;
75358;SDS011;64046;51.978;5.934;2022-10-04T07:35:04;11.23;;;6.65;;
75358;SDS011;64046;51.978;5.934;2022-10-04T07:37:46;15.65;;;7.45;;
75358;SDS011;64046;51.978;5.934;2022-10-04T07:40:21;15.73;;;7.47;;
75358;SDS011;64046;51.978;5.934;2022-10-04T07:42:57;19.38;;;8.82;;
75358;SDS011;64046;51.978;5.934;2022-10-04T07:45:31;28.02;;;11.20;;
75358;SDS011;64046;51.978;5.934;2022-10-04T07:48:09;12.40;;;7.47;;
75358;SDS011;64046;51.978;5.934;2022-10-04T07:50:43;15.70;;;7.40;;
75358;SDS011;64046;51.978;5.934;2022-10-04T07:53:20;15.43;;;7.53;;
75358;SDS011;64046;51.978;5.934;2022-10-04T07:55:55;14.35;;;7.10;;
75358;SDS011;64046;51.978;5.934;2022-10-04T07:58:37;15.23;;;8.20;;
75358;SDS011;64046;51.978;5.934;2022-10-04T08:01:18;16.75;;;8.20;;
75358;SDS011;64046;51.978;5.934;2022-10-04T08:03:58;11.50;;;6.70;;
75358;SDS011;64046;51.978;5.934;2022-10-04T08:06:37;12.73;;;7.65;;
75358;SDS011;64046;51.978;5.934;2022-10-04T08:09:22;13.40;;;6.72;;
75358;SDS011;64046;51.978;5.934;2022-10-04T08:12:02;12.27;;;7.55;;
75358;SDS011;64046;51.978;5.934;2022-10-04T08:14:46;10.00;;;6.30;;
75358;SDS011;64046;51.978;5.934;2022-10-04T08:17:44;13.48;;;6.45;;
75358;SDS011;64046;51.978;5.934;2022-10-04T08:20:23;15.90;;;6.45;;
75358;SDS011;64046;51.978;5.934;2022-10-04T08:23:13;14.15;;;7.32;;
75358;SDS011;64046;51.978;5.934;2022-10-04T08:25:56;11.75;;;5.57;;
75358;SDS011;64046;51.978;5.934;2022-10-04T08:28:37;10.60;;;5.68;;
75358;SDS011;64046;51.978;5.934;2022-10-04T08:31:30;9.35;;;5.85;;
75358;SDS011;64046;51.978;5.934;2022-10-04T08:34:15;11.63;;;5.13;;
75358;SDS011;64046;51.978;5.934;2022-10-04T08:36:59;13.88;;;5.38;;
75358;SDS011;64046;51.978;5.934;2022-10-04T08:39:44;9.02;;;5.80;;
75358;SDS011;64046;51.978;5.934;2022-10-04T08:42:36;14.57;;;7.10;;
75358;SDS011;64046;51.978;5.934;2022-10-04T08:48:58;8.43;;;5.20;;
75358;SDS011;64046;51.978;5.934;2022-10-04T08:51:54;13.32;;;6.60;;
75358;SDS011;64046;51.978;5.934;2022-10-04T08:55:03;12.57;;;6.13;;
75358;SDS011;64046;51.978;5.934;2022-10-04T08:58:01;9.32;;;5.90;;
75358;SDS011;64046;51.978;5.934;2022-10-04T09:06:53;9.63;;;5.40;;
75358;SDS011;64046;51.978;5.934;2022-10-04T09:09:39;11.93;;;5.80;;
75358;SDS011;64046;51.978;5.934;2022-10-04T09:12:30;14.35;;;6.45;;
75358;SDS011;64046;51.978;5.934;2022-10-04T09:15:28;15.55;;;6.78;;
75358;SDS011;64046;51.978;5.934;2022-10-04T09:18:20;10.52;;;5.40;;
75358;SDS011;64046;51.978;5.934;2022-10-04T09:20:59;13.43;;;5.65;;
75358;SDS011;64046;51.978;5.934;2022-10-04T09:23:52;17.83;;;5.90;;
75358;SDS011;64046;51.978;5.934;2022-10-04T09:26:42;12.02;;;5.32;;
75358;SDS011;64046;51.978;5.934;2022-10-04T09:29:17;9.90;;;5.20;;
75358;SDS011;64046;51.978;5.934;2022-10-04T09:41:25;9.07;;;5.65;;
75358;SDS011;64046;51.978;5.934;2022-10-04T09:47:09;14.02;;;6.10;;
75358;SDS011;64046;51.978;5.934;2022-10-04T09:50:01;11.75;;;6.13;;
75358;SDS011;64046;51.978;5.934;2022-10-04T09:52:53;9.88;;;5.45;;
75358;SDS011;64046;51.978;5.934;2022-10-04T09:55:35;9.63;;;5.20;;
75358;SDS011;64046;51.978;5.934;2022-10-04T09:58:36;8.48;;;4.60;;
75358;SDS011;64046;51.978;5.934;2022-10-04T10:01:26;9.18;;;5.85;;
75358;SDS011;64046;51.978;5.934;2022-10-04T10:07:02;13.35;;;5.65;;
75358;SDS011;64046;51.978;5.934;2022-10-04T10:09:43;12.35;;;5.43;;
75358;SDS011;64046;51.978;5.934;2022-10-04T10:12:39;13.63;;;6.20;;
75358;SDS011;64046;51.978;5.934;2022-10-04T10:15:41;10.10;;;4.90;;
75358;SDS011;64046;51.978;5.934;2022-10-04T10:18:24;10.82;;;5.50;;
75358;SDS011;64046;51.978;5.934;2022-10-04T10:30:02;9.85;;;5.20;;
75358;SDS011;64046;51.978;5.934;2022-10-04T10:33:05;5.55;;;3.90;;
75358;SDS011;64046;51.978;5.934;2022-10-04T10:36:02;8.15;;;4.13;;
75358;SDS011;64046;51.978;5.934;2022-10-04T10:38:56;10.60;;;4.47;;
75358;SDS011;64046;51.978;5.934;2022-10-04T10:41:43;10.73;;;4.43;;
75358;SDS011;64046;51.978;5.934;2022-10-04T10:44:29;10.18;;;4.35;;
75358;SDS011;64046;51.978;5.934;2022-10-04T10:47:19;7.78;;;4.72;;
75358;SDS011;64046;51.978;5.934;2022-10-04T10:50:02;12.82;;;4.60;;
75358;SDS011;64046;51.978;5.934;2022-10-04T10:52:56;13.07;;;4.43;;
75358;SDS011;64046;51.978;5.934;2022-10-04T10:58:49;9.75;;;4.60;;
75358;SDS011;64046;51.978;5.934;2022-10-04T11:01:38;10.23;;;5.07;;
75358;SDS011;64046;51.978;5.934;2022-10-04T11:04:34;8.10;;;4.32;;
75358;SDS011;64046;51.978;5.934;2022-10-04T11:10:25;7.47;;;4.30;;
75358;SDS011;64046;51.978;5.934;2022-10-04T11:16:25;10.40;;;5.22;;
75358;SDS011;64046;51.978;5.934;2022-10-04T11:25:54;9.23;;;4.28;;
75358;SDS011;64046;51.978;5.934;2022-10-04T11:28:30;14.90;;;5.22;;
75358;SDS011;64046;51.978;5.934;2022-10-04T11:31:16;7.38;;;3.70;;
75358;SDS011;64046;51.978;5.934;2022-10-04T11:34:33;11.60;;;4.97;;
75358;SDS011;64046;51.978;5.934;2022-10-04T11:37:28;5.82;;;3.45;;
75358;SDS011;64046;51.978;5.934;2022-10-04T11:40:18;10.95;;;4.47;;
75358;SDS011;64046;51.978;5.934;2022-10-04T11:43:02;8.63;;;3.58;;
75358;SDS011;64046;51.978;5.934;2022-10-04T11:45:53;11.80;;;4.80;;
75358;SDS011;64046;51.978;5.934;2022-10-04T11:48:36;8.00;;;4.28;;
75358;SDS011;64046;51.978;5.934;2022-10-04T11:51:24;8.85;;;4.35;;
75358;SDS011;64046;51.978;5.934;2022-10-04T11:54:21;9.82;;;4.03;;
75358;SDS011;64046;51.978;5.934;2022-10-04T11:57:27;8.80;;;3.95;;
75358;SDS011;64046;51.978;5.934;2022-10-04T12:00:00;8.73;;;4.05;;
75358;SDS011;64046;51.978;5.934;2022-10-04T12:06:09;6.45;;;2.85;;
75358;SDS011;64046;51.978;5.934;2022-10-04T12:09:02;14.52;;;3.90;;
75358;SDS011;64046;51.978;5.934;2022-10-04T12:11:51;9.05;;;4.28;;
75358;SDS011;64046;51.978;5.934;2022-10-04T12:14:52;8.50;;;3.55;;
75358;SDS011;64046;51.978;5.934;2022-10-04T12:18:05;10.90;;;4.43;;
75358;SDS011;64046;51.978;5.934;2022-10-04T12:20:56;7.10;;;3.70;;
75358;SDS011;64046;51.978;5.934;2022-10-04T12:29:57;7.07;;;3.38;;
75358;SDS011;64046;51.978;5.934;2022-10-04T12:32:49;7.75;;;3.65;;
75358;SDS011;64046;51.978;5.934;2022-10-04T12:35:30;7.50;;;3.50;;
75358;SDS011;64046;51.978;5.934;2022-10-04T12:38:12;5.78;;;3.08;;
75358;SDS011;64046;51.978;5.934;2022-10-04T12:40:53;11.48;;;3.67;;
75358;SDS011;64046;51.978;5.934;2022-10-04T12:43:32;11.52;;;4.18;;
75358;SDS011;64046;51.978;5.934;2022-10-04T12:46:15;9.15;;;3.58;;
75358;SDS011;64046;51.978;5.934;2022-10-04T12:49:13;9.13;;;3.50;;
75358;SDS011;64046;51.978;5.934;2022-10-04T12:51:54;7.22;;;3.22;;
75358;SDS011;64046;51.978;5.934;2022-10-04T12:54:33;8.02;;;3.80;;
75358;SDS011;64046;51.978;5.934;2022-10-04T13:00:00;12.05;;;4.40;;
75358;SDS011;64046;51.978;5.934;2022-10-04T13:02:49;14.02;;;4.13;;
75358;SDS011;64046;51.978;5.934;2022-10-04T13:05:32;12.95;;;3.10;;
75358;SDS011;64046;51.978;5.934;2022-10-04T13:08:09;7.13;;;2.85;;
75358;SDS011;64046;51.978;5.934;2022-10-04T13:10:54;5.47;;;2.97;;
75358;SDS011;64046;51.978;5.934;2022-10-04T13:13:39;10.55;;;3.33;;
75358;SDS011;64046;51.978;5.934;2022-10-04T13:16:19;6.53;;;2.67;;
75358;SDS011;64046;51.978;5.934;2022-10-04T13:19:02;11.05;;;3.10;;
75358;SDS011;64046;51.978;5.934;2022-10-04T13:21:54;6.10;;;2.75;;
75358;SDS011;64046;51.978;5.934;2022-10-04T13:24:40;5.82;;;2.80;;
75358;SDS011;64046;51.978;5.934;2022-10-04T13:27:27;5.07;;;2.30;;
75358;SDS011;64046;51.978;5.934;2022-10-04T13:30:04;5.40;;;2.45;;
75358;SDS011;64046;51.978;5.934;2022-10-04T13:32:43;7.30;;;2.65;;
75358;SDS011;64046;51.978;5.934;2022-10-04T13:35:24;11.10;;;3.55;;
75358;SDS011;64046;51.978;5.934;2022-10-04T13:38:02;7.78;;;2.80;;
75358;SDS011;64046;51.978;5.934;2022-10-04T13:41:02;3.53;;;2.30;;
75358;SDS011;64046;51.978;5.934;2022-10-04T13:43:50;7.63;;;2.88;;
75358;SDS011;64046;51.978;5.934;2022-10-04T13:46:36;7.88;;;3.22;;
75358;SDS011;64046;51.978;5.934;2022-10-04T13:49:19;5.97;;;2.67;;
75358;SDS011;64046;51.978;5.934;2022-10-04T13:52:13;7.00;;;2.97;;
75358;SDS011;64046;51.978;5.934;2022-10-04T13:55:12;8.02;;;4.75;;
75358;SDS011;64046;51.978;5.934;2022-10-04T13:58:23;7.18;;;3.20;;
75358;SDS011;64046;51.978;5.934;2022-10-04T14:01:04;9.10;;;2.97;;
75358;SDS011;64046;51.978;5.934;2022-10-04T14:04:00;5.28;;;2.78;;
75358;SDS011;64046;51.978;5.934;2022-10-04T14:06:56;5.75;;;3.35;;
75358;SDS011;64046;51.978;5.934;2022-10-04T14:09:55;6.28;;;3.67;;
75358;SDS011;64046;51.978;5.934;2022-10-04T14:15:49;5.65;;;2.92;;
75358;SDS011;64046;51.978;5.934;2022-10-04T14:18:56;8.00;;;2.83;;
75358;SDS011;64046;51.978;5.934;2022-10-04T14:21:59;7.20;;;2.55;;
75358;SDS011;64046;51.978;5.934;2022-10-04T14:31:14;7.45;;;3.30;;
75358;SDS011;64046;51.978;5.934;2022-10-04T14:34:01;10.52;;;4.93;;
75358;SDS011;64046;51.978;5.934;2022-10-04T14:39:52;9.57;;;3.13;;
75358;SDS011;64046;51.978;5.934;2022-10-04T14:42:48;6.70;;;3.03;;
75358;SDS011;64046;51.978;5.934;2022-10-04T14:45:32;7.13;;;3.60;;
75358;SDS011;64046;51.978;5.934;2022-10-04T14:48:17;8.27;;;3.80;;
75358;SDS011;64046;51.978;5.934;2022-10-04T14:51:13;8.43;;;2.80;;
75358;SDS011;64046;51.978;5.934;2022-10-04T14:53:53;5.40;;;2.70;;
75358;SDS011;64046;51.978;5.934;2022-10-04T14:56:34;8.18;;;3.25;;
75358;SDS011;64046;51.978;5.934;2022-10-04T14:59:20;6.82;;;3.58;;
75358;SDS011;64046;51.978;5.934;2022-10-04T15:05:18;6.95;;;2.92;;
75358;SDS011;64046;51.978;5.934;2022-10-04T15:08:07;9.02;;;3.30;;
75358;SDS011;64046;51.978;5.934;2022-10-04T15:10:53;9.18;;;3.20;;
75358;SDS011;64046;51.978;5.934;2022-10-04T15:13:27;6.95;;;2.90;;
75358;SDS011;64046;51.978;5.934;2022-10-04T15:16:06;7.15;;;3.30;;
75358;SDS011;64046;51.978;5.934;2022-10-04T15:18:49;5.47;;;3.10;;
75358;SDS011;64046;51.978;5.934;2022-10-04T15:21:32;5.78;;;2.80;;
75358;SDS011;64046;51.978;5.934;2022-10-04T15:24:21;5.93;;;3.25;;
75358;SDS011;64046;51.978;5.934;2022-10-04T15:30:07;6.82;;;2.97;;
75358;SDS011;64046;51.978;5.934;2022-10-04T15:32:44;4.97;;;2.72;;
75358;SDS011;64046;51.978;5.934;2022-10-04T15:35:22;9.32;;;2.67;;
75358;SDS011;64046;51.978;5.934;2022-10-04T15:37:57;6.68;;;3.00;;
75358;SDS011;64046;51.978;5.934;2022-10-04T15:40:34;7.38;;;3.05;;
75358;SDS011;64046;51.978;5.934;2022-10-04T15:43:18;8.93;;;3.35;;
75358;SDS011;64046;51.978;5.934;2022-10-04T15:45:59;9.60;;;3.47;;
75358;SDS011;64046;51.978;5.934;2022-10-04T15:58:04;9.43;;;3.58;;
75358;SDS011;64046;51.978;5.934;2022-10-04T16:00:55;4.68;;;3.08;;
75358;SDS011;64046;51.978;5.934;2022-10-04T16:03:38;4.05;;;2.83;;
75358;SDS011;64046;51.978;5.934;2022-10-04T16:06:16;8.60;;;3.60;;
75358;SDS011;64046;51.978;5.934;2022-10-04T16:08:56;4.45;;;2.80;;
75358;SDS011;64046;51.978;5.934;2022-10-04T16:11:47;4.70;;;2.85;;
75358;SDS011;64046;51.978;5.934;2022-10-04T16:14:29;8.45;;;2.88;;
75358;SDS011;64046;51.978;5.934;2022-10-04T16:17:21;5.82;;;3.10;;
75358;SDS011;64046;51.978;5.934;2022-10-04T16:23:21;4.88;;;2.83;;
75358;SDS011;64046;51.978;5.934;2022-10-04T16:26:00;8.15;;;3.05;;
75358;SDS011;64046;51.978;5.934;2022-10-04T16:31:48;6.20;;;2.90;;
75358;SDS011;64046;51.978;5.934;2022-10-04T16:34:26;6.15;;;3.35;;
75358;SDS011;64046;51.978;5.934;2022-10-04T16:37:11;6.43;;;2.95;;
75358;SDS011;64046;51.978;5.934;2022-10-04T16:39:53;8.80;;;3.15;;
75358;SDS011;64046;51.978;5.934;2022-10-04T16:42:33;6.03;;;3.25;;
75358;SDS011;64046;51.978;5.934;2022-10-04T16:51:02;7.05;;;3.50;;
75358;SDS011;64046;51.978;5.934;2022-10-04T16:53:48;8.73;;;3.22;;
75358;SDS011;64046;51.978;5.934;2022-10-04T16:56:24;8.20;;;3.22;;
75358;SDS011;64046;51.978;5.934;2022-10-04T16:58:56;4.63;;;2.67;;
75358;SDS011;64046;51.978;5.934;2022-10-04T17:04:42;7.95;;;3.17;;
75358;SDS011;64046;51.978;5.934;2022-10-04T17:07:31;8.27;;;3.63;;
75358;SDS011;64046;51.978;5.934;2022-10-04T17:13:05;7.63;;;2.92;;
75358;SDS011;64046;51.978;5.934;2022-10-04T17:15:46;7.63;;;3.22;;
75358;SDS011;64046;51.978;5.934;2022-10-04T17:18:18;8.60;;;3.80;;
75358;SDS011;64046;51.978;5.934;2022-10-04T17:20:57;7.05;;;2.90;;
75358;SDS011;64046;51.978;5.934;2022-10-04T17:26:37;6.30;;;3.22;;
75358;SDS011;64046;51.978;5.934;2022-10-04T17:29:20;8.63;;;4.03;;
75358;SDS011;64046;51.978;5.934;2022-10-04T17:32:02;5.57;;;3.35;;
75358;SDS011;64046;51.978;5.934;2022-10-04T17:34:42;8.05;;;2.95;;
75358;SDS011;64046;51.978;5.934;2022-10-04T17:37:27;6.22;;;3.22;;
75358;SDS011;64046;51.978;5.934;2022-10-04T17:40:15;8.95;;;3.88;;
75358;SDS011;64046;51.978;5.934;2022-10-04T17:42:56;7.32;;;3.90;;
75358;SDS011;64046;51.978;5.934;2022-10-04T17:45:37;5.88;;;3.50;;
75358;SDS011;64046;51.978;5.934;2022-10-04T17:48:19;5.82;;;3.45;;
75358;SDS011;64046;51.978;5.934;2022-10-04T17:51:03;8.80;;;4.10;;
75358;SDS011;64046;51.978;5.934;2022-10-04T17:54:04;9.90;;;3.92;;
75358;SDS011;64046;51.978;5.934;2022-10-04T17:59:42;6.10;;;3.50;;
75358;SDS011;64046;51.978;5.934;2022-10-04T18:02:15;8.40;;;4.28;;
75358;SDS011;64046;51.978;5.934;2022-10-04T18:04:51;5.72;;;3.88;;
75358;SDS011;64046;51.978;5.934;2022-10-04T18:07:23;7.00;;;3.33;;
75358;SDS011;64046;51.978;5.934;2022-10-04T18:09:59;9.07;;;4.20;;
75358;SDS011;64046;51.978;5.934;2022-10-04T18:12:33;7.50;;;3.97;;
75358;SDS011;64046;51.978;5.934;2022-10-04T18:15:09;6.63;;;3.58;;
75358;SDS011;64046;51.978;5.934;2022-10-04T18:17:47;11.25;;;4.57;;
75358;SDS011;64046;51.978;5.934;2022-10-04T18:20:22;11.07;;;4.20;;
75358;SDS011;64046;51.978;5.934;2022-10-04T18:22:55;10.57;;;5.30;;